AirNav   TITAN Aviation Fuels
 
 399 users online  

43NC Bahnson Gliderport
Mocksville, North Carolina, USA

GOING TO MOCKSVILLE?


FAA INFORMATION EFFECTIVE 22 APRIL 2021

Location

FAA Identifier: 43NC
Lat/Long: 36-01-15.0000N 080-30-59.0000W
36-01.250000N 080-30.983333W
36.0208333,-80.5163889
(estimated)
Elevation: 810 ft. / 247 m (estimated)
Variation: 07W (1995)
From city: 7 miles NE of MOCKSVILLE, NC
Time zone: UTC -4 (UTC -5 during Standard Time)
Zip code: 27028

Gliderport Operations

Gliderport use: Private use. Permission required prior to landing
Activation date: 01/2000
Control tower: no
ARTCC: ATLANTA CENTER
FSS: RALEIGH FLIGHT SERVICE STATION
Attendance: UNATNDD
Wind indicator: yes
Segmented circle: yes

Gliderport Communications

WX ASOS at INT (16 nm NE): PHONE 336-661-3096
WX AWOS-3 at EXX (18 nm SE): 119.825 (336-956-2967)

Nearby radio navigation aids

VOR radial/distance  VOR name  Freq  Var
GSOr270/26.2GREENSBORO VORTAC116.2003W
BZMr081/36.3BARRETTS MOUNTAIN VOR/DME110.8006W

 
NDB name  Hdg/Dist  Freq  Var  ID
ZEPHYR158/20.132608WZEF --.. . ..-.

Gliderport Services

Runway Information

Runway 1/19

Dimensions: 3000 x 100 ft. / 914 x 30 m
Surface: turf
RUNWAY 1  RUNWAY 19
Traffic pattern: leftright

Gliderport Ownership and Management from official FAA records

Ownership: Privately-owned
Owner: MARY LOUISE BAHNSON
2078 HIWAY 801N
MOCKSVILLE, NC 27028
Phone 828-216-8062
Manager: ROBERT HILK
5201 FERN RIDGE DR.
WINSTON-SALEM, NC 27104
Phone 248-778-8468

Gliderport Operational Statistics

Aircraft based on the field: 17
Single engine airplanes: 2
Gliders airplanes: 15
    

Additional Remarks

FOR CD CTC ATLANTA ARTCC AT 770-210-7692.

Instrument Procedures

There are no published instrument procedures at 43NC.

Some nearby airports with instrument procedures:

8A7 - Twin Lakes Airport (7 nm SE)
KINT - Smith Reynolds Airport (16 nm NE)
KEXX - Davidson County Airport (18 nm SE)
KZEF - Elkin Municipal Airport (20 nm NW)
KRUQ - Mid-Carolina Regional Airport (22 nm S)
 
Loc | Ops | Rwys | IFR | FBO | Links
Com | Nav | Svcs | Stats | Notes
Area around 43NC (Bahnson Gliderport)
 
Road maps at: MapQuest Bing Google
 
Aerial photo
WARNING: Photo may not be current or correct
Aerial photo of 43NC (Bahnson Gliderport)
Do you have a better or more recent aerial photo of Bahnson Gliderport that you would like to share? If so, please send us your photo.

 
Sectional chart

 
Airport distance calculator
Flying to Bahnson Gliderport? Find the distance to fly.

From to 43NC

Sunrise and sunset
Times for 09-May-2021
 Local
(UTC-4)
 Zulu
(UTC)
Morning civil twilight05:5409:54
Sunrise06:2210:22
Sunset20:1500:15
Evening civil twilight20:4300:43

Current date and time
Zulu (UTC)  09-May-2021 06:58:21
Local (UTC-4)  09-May-2021 02:58:21
 
METAR
KINT 
16nm NE 
090654Z AUTO 08003KT 10SM OVC090 13/00 A3009 RMK AO2 SLP181 T01330000
KEXX 
18nm SE 
090635Z AUTO 06003KT 10SM OVC100 14/00 A3008 RMK AO2 T01350004
KRUQ 
22nm S 
090655Z AUTO 00000KT 10SM OVC090 14/01 A3008 RMK AO2 T01400010
KSVH 
27nm SW 
090635Z AUTO 10003KT 10SM BKN080 OVC090 15/04 A3007 RMK AO2 T01450040
KMWK 
27nm N 
090655Z AUTO 09004KT 10SM OVC070 13/M02 A3008 RMK AO2 T01281020
KGSO 
28nm E 
090654Z 00000KT 10SM OVC085 13/01 A3007 RMK AO2 SLP177 T01280006
KUKF 
31nm NW 
090635Z AUTO 00000KT 10SM OVC075 12/03 A3012 RMK AO2
TAF
KINT 
16nm NE 
090520Z 0906/1006 07005KT P6SM OVC100 FM091400 19010G22KT P6SM SCT250
NOTAMs
Click for the latest NOTAMs
NOTAMs are issued by the DoD/FAA and will open in a separate window not controlled by AirNav.

 

 
 

Would you like to see your business listed on this page?

 If your business provides an interesting product or service to pilots, flight crews, aircraft, or users of the Bahnson Gliderport, you should consider listing it here.  To start the listing process, click on the button below
 
Add a business
 

Other Pages about Bahnson Gliderport

Update a link
 
Copyright © AirNav, LLC. All rights reserved. Privacy Policy  Contact